createdAt,value
2019-04-20T00:00:05.872Z,4.85
2019-04-20T00:01:36.012Z,4.80
2019-04-20T00:03:09.674Z,5.17
2019-04-20T00:04:43.059Z,5.22
2019-04-20T00:06:15.572Z,5.30
2019-04-20T00:07:48.092Z,5.20
2019-04-20T00:09:24.707Z,5.12
2019-04-20T00:11:02.367Z,5.20
2019-04-20T00:12:37.446Z,5.20
2019-04-20T00:14:09.232Z,4.97
2019-04-20T00:15:36.887Z,5.70
2019-04-20T00:17:09.534Z,5.42
2019-04-20T00:18:48.453Z,5.20
2019-04-20T00:20:20.748Z,4.83
2019-04-20T00:21:58.360Z,5.08
2019-04-20T00:23:47.708Z,5.42
2019-04-20T00:25:52.205Z,5.12
2019-04-20T00:27:37.179Z,5.45
2019-04-20T00:29:07.301Z,5.53
2019-04-20T00:30:40.152Z,5.20
2019-04-20T00:32:06.252Z,5.67
2019-04-20T00:33:46.089Z,5.53
2019-04-20T00:35:05.950Z,5.15
2019-04-20T00:36:39.249Z,5.45
2019-04-20T00:38:11.993Z,5.05
2019-04-20T00:39:44.789Z,5.60
2019-04-20T00:41:19.020Z,5.35
2019-04-20T00:42:55.064Z,5.42
2019-04-20T00:44:33.122Z,5.35
2019-04-20T00:46:06.700Z,5.10
2019-04-20T00:47:41.907Z,5.47
2019-04-20T00:49:20.723Z,5.45
2019-04-20T00:50:57.229Z,5.55
2019-04-20T00:52:31.298Z,5.22
2019-04-20T00:53:52.354Z,5.37
2019-04-20T00:55:23.699Z,5.33
2019-04-20T00:57:07.870Z,5.42
2019-04-20T00:58:35.950Z,5.47
2019-04-20T01:00:24.335Z,5.72
2019-04-20T01:02:02.042Z,5.10
2019-04-20T01:03:27.665Z,5.62
2019-04-20T01:05:06.569Z,5.28
2019-04-20T01:06:57.461Z,5.78
2019-04-20T01:08:23.315Z,5.55
2019-04-20T01:10:04.972Z,5.47
2019-04-20T01:11:42.234Z,5.50
2019-04-20T01:13:15.779Z,5.45
2019-04-20T01:14:52.266Z,5.58
2019-04-20T01:16:29.580Z,5.40
2019-04-20T01:17:53.952Z,5.10
2019-04-20T01:19:26.117Z,5.20
2019-04-20T01:21:09.988Z,5.30
2019-04-20T01:22:40.280Z,5.80
2019-04-20T01:24:08.872Z,5.35
2019-04-20T01:25:43.691Z,5.78
2019-04-20T01:27:29.877Z,5.55
2019-04-20T01:29:04.230Z,5.75
2019-04-20T01:30:32.316Z,5.30
2019-04-20T01:32:14.142Z,5.53
2019-04-20T01:33:42.828Z,5.20
2019-04-20T01:35:25.171Z,5.65
2019-04-20T01:36:55.607Z,5.67
2019-04-20T01:38:32.943Z,5.40
2019-04-20T01:39:54.190Z,5.53
2019-04-20T01:41:24.345Z,5.92
2019-04-20T01:42:57.297Z,5.92
2019-04-20T01:44:33.228Z,5.47
2019-04-20T01:46:10.147Z,5.55
2019-04-20T01:47:45.433Z,5.37
2019-04-20T01:49:18.270Z,5.83
2019-04-20T01:50:57.407Z,5.70
2019-04-20T01:52:26.902Z,5.83
2019-04-20T01:54:11.743Z,5.45
2019-04-20T01:55:49.458Z,5.60
2019-04-20T01:57:29.825Z,5.90
2019-04-20T01:59:23.022Z,5.60
2019-04-20T02:01:11.979Z,6.00
2019-04-20T02:02:48.813Z,5.90
2019-04-20T02:04:41.993Z,6.08
2019-04-20T02:06:17.902Z,6.12
2019-04-20T02:07:50.501Z,5.87
2019-04-20T02:09:25.992Z,6.00
2019-04-20T02:10:59.253Z,5.92
2019-04-20T02:12:34.162Z,5.72
2019-04-20T02:14:06.970Z,6.12
2019-04-20T02:15:43.332Z,5.65
2019-04-20T02:17:21.354Z,5.87
2019-04-20T02:19:05.235Z,5.95
2019-04-20T02:20:37.453Z,5.78
2019-04-20T02:22:07.603Z,5.60
2019-04-20T02:23:37.982Z,5.53
2019-04-20T02:25:02.048Z,6.15
2019-04-20T02:26:34.730Z,5.75
2019-04-20T02:28:22.737Z,6.17
2019-04-20T02:30:08.824Z,5.87
2019-04-20T02:32:01.091Z,5.65
2019-04-20T02:35:36.187Z,5.75
2019-04-20T02:36:58.871Z,5.78
2019-04-20T02:38:58.422Z,5.80
2019-04-20T02:40:09.104Z,5.87
2019-04-20T02:41:49.716Z,6.00
2019-04-20T02:43:25.312Z,5.97
2019-04-20T02:44:58.843Z,6.05
2019-04-20T02:46:24.236Z,6.00
2019-04-20T02:48:06.546Z,5.70
2019-04-20T02:51:06.694Z,6.03
2019-04-20T02:54:19.094Z,5.40
2019-04-20T02:59:25.060Z,5.55
2019-04-20T03:01:57.628Z,5.92
2019-04-20T03:03:20.488Z,6.12
2019-04-20T03:04:51.408Z,6.00
2019-04-20T03:06:30.519Z,5.83
2019-04-20T03:08:10.089Z,5.58
2019-04-20T03:09:44.373Z,5.85
2019-04-20T03:11:20.926Z,5.80
2019-04-20T03:13:01.413Z,5.97
2019-04-20T03:14:27.988Z,5.87
2019-04-20T03:16:07.204Z,5.72
2019-04-20T03:17:39.074Z,5.60
2019-04-20T03:19:07.635Z,6.03
2019-04-20T03:20:45.997Z,5.50
2019-04-20T03:22:23.540Z,5.75
2019-04-20T03:24:03.984Z,5.33
2019-04-20T03:25:53.419Z,6.50
2019-04-20T03:27:30.879Z,5.45
2019-04-20T03:29:44.142Z,6.20
2019-04-20T03:36:10.418Z,5.90
2019-04-20T03:37:36.841Z,5.97
2019-04-20T03:39:01.500Z,5.60
2019-04-20T03:40:34.661Z,6.10
2019-04-20T03:41:56.983Z,6.03
2019-04-20T03:43:28.794Z,6.35
2019-04-20T03:45:07.625Z,5.80
2019-04-20T03:46:45.098Z,6.30
2019-04-20T03:48:32.230Z,6.05
2019-04-20T03:50:07.639Z,6.08
2019-04-20T03:51:40.223Z,6.05
2019-04-20T03:53:24.055Z,5.83
2019-04-20T03:55:19.913Z,5.87
2019-04-20T03:57:15.707Z,5.75
2019-04-20T03:59:08.669Z,5.87
2019-04-20T04:01:06.611Z,5.42
2019-04-20T04:03:01.465Z,6.03
2019-04-20T04:04:36.050Z,5.60
2019-04-20T04:06:02.953Z,6.05
2019-04-20T04:07:32.377Z,5.85
2019-04-20T04:09:14.563Z,5.92
2019-04-20T04:10:53.317Z,5.75
2019-04-20T04:12:46.814Z,6.47
2019-04-20T04:14:17.910Z,5.95
2019-04-20T04:15:57.751Z,6.45
2019-04-20T04:17:30.974Z,5.92
2019-04-20T04:19:08.975Z,5.87
2019-04-20T04:20:38.699Z,5.92
2019-04-20T04:22:18.136Z,5.75
2019-04-20T04:23:58.818Z,6.00
2019-04-20T04:25:25.052Z,6.00
2019-04-20T04:27:03.623Z,6.12
2019-04-20T04:28:40.701Z,6.53
2019-04-20T04:30:13.393Z,6.17
2019-04-20T04:31:57.735Z,6.33
2019-04-20T04:33:45.723Z,6.37
2019-04-20T04:34:58.947Z,6.08
2019-04-20T04:36:25.983Z,6.50
2019-04-20T04:38:06.675Z,6.25
2019-04-20T04:39:42.855Z,5.67
2019-04-20T04:41:21.515Z,5.72
2019-04-20T04:42:52.537Z,6.58
2019-04-20T04:44:33.526Z,5.75
2019-04-20T04:45:51.209Z,6.12
2019-04-20T04:47:23.991Z,6.30
2019-04-20T04:49:06.895Z,6.08
2019-04-20T04:50:31.854Z,6.40
2019-04-20T04:52:10.391Z,6.30
2019-04-20T04:53:50.012Z,6.08
2019-04-20T04:55:27.364Z,6.25
2019-04-20T04:56:48.395Z,5.97
2019-04-20T04:58:21.612Z,6.90
2019-04-20T04:59:55.194Z,6.42
2019-04-20T05:01:30.718Z,6.40
2019-04-20T05:03:24.294Z,6.90
2019-04-20T05:05:23.869Z,6.30
2019-04-20T05:06:53.595Z,6.30
2019-04-20T05:08:22.007Z,6.25
2019-04-20T05:09:48.646Z,6.58
2019-04-20T05:11:21.735Z,6.45
2019-04-20T05:12:54.767Z,6.50
2019-04-20T05:14:41.848Z,6.58
2019-04-20T05:16:17.973Z,6.12
2019-04-20T05:17:57.594Z,6.60
2019-04-20T05:19:31.195Z,6.03
2019-04-20T05:21:10.148Z,6.17
2019-04-20T05:22:45.552Z,6.65
2019-04-20T05:24:32.263Z,6.20
2019-04-20T05:26:30.079Z,6.35
2019-04-20T05:28:05.735Z,6.40
2019-04-20T05:29:27.381Z,6.20
2019-04-20T05:31:02.536Z,6.33
2019-04-20T05:32:43.976Z,6.70
2019-04-20T05:34:25.562Z,6.83
2019-04-20T05:36:01.525Z,6.37
2019-04-20T05:37:54.276Z,6.30
2019-04-20T05:39:16.119Z,6.53
2019-04-20T05:40:48.661Z,7.08
2019-04-20T05:42:18.431Z,6.28
2019-04-20T05:44:12.763Z,7.05
2019-04-20T05:45:45.314Z,6.97
2019-04-20T05:47:26.986Z,6.47
2019-04-20T05:49:02.562Z,6.90
2019-04-20T05:50:35.028Z,6.85
2019-04-20T05:52:17.427Z,6.90
2019-04-20T05:53:46.747Z,6.60
2019-04-20T05:55:19.505Z,6.42
2019-04-20T05:56:52.520Z,6.62
2019-04-20T05:58:30.999Z,6.83
2019-04-20T06:00:08.392Z,6.45
2019-04-20T06:01:33.384Z,6.40
2019-04-20T06:03:07.337Z,6.95
2019-04-20T06:04:54.158Z,7.05
2019-04-20T06:06:18.249Z,6.55
2019-04-20T06:07:48.852Z,6.28
2019-04-20T06:09:31.711Z,6.75
2019-04-20T06:11:04.176Z,6.55
2019-04-20T06:12:35.927Z,6.85
2019-04-20T06:14:15.499Z,6.53
2019-04-20T06:16:08.861Z,6.25
2019-04-20T06:18:01.010Z,6.83
2019-04-20T06:19:35.472Z,7.00
2019-04-20T06:21:17.256Z,6.42
2019-04-20T06:22:58.531Z,6.90
2019-04-20T06:24:37.781Z,7.12
2019-04-20T06:26:13.447Z,7.00
2019-04-20T06:27:36.538Z,6.72
2019-04-20T06:28:58.354Z,7.20
2019-04-20T06:30:39.108Z,6.70
2019-04-20T06:32:20.316Z,6.80
2019-04-20T06:36:09.326Z,6.97
2019-04-20T06:37:23.496Z,6.55
2019-04-20T06:40:59.361Z,6.22
2019-04-20T06:43:45.968Z,6.90
2019-04-20T06:45:20.093Z,7.05
2019-04-20T06:46:58.864Z,6.72
2019-04-20T06:48:34.977Z,6.50
2019-04-20T06:50:03.115Z,6.90
2019-04-20T06:51:34.883Z,6.67
2019-04-20T06:53:37.024Z,6.33
2019-04-20T06:55:23.457Z,6.95
2019-04-20T06:56:48.124Z,6.67
2019-04-20T06:58:37.427Z,6.62
2019-04-20T06:59:54.999Z,6.40
2019-04-20T07:01:24.911Z,6.37
2019-04-20T07:03:09.039Z,6.75
2019-04-20T07:04:41.887Z,6.30
2019-04-20T07:06:32.155Z,6.65
2019-04-20T07:07:47.654Z,6.42
2019-04-20T07:09:23.428Z,6.67
2019-04-20T07:11:08.881Z,6.58
2019-04-20T07:12:23.013Z,6.67
2019-04-20T07:13:50.335Z,6.60
2019-04-20T07:15:36.398Z,6.60
2019-04-20T07:17:35.991Z,6.53
2019-04-20T07:19:07.898Z,6.17
2019-04-20T07:20:56.752Z,6.92
2019-04-20T07:22:46.516Z,6.67
2019-04-20T07:24:11.838Z,6.60
2019-04-20T07:25:42.323Z,6.80
2019-04-20T07:27:15.214Z,6.28
2019-04-20T07:28:57.579Z,6.58
2019-04-20T07:30:19.053Z,6.55
2019-04-20T07:31:48.750Z,6.08
2019-04-20T07:33:32.264Z,6.37
2019-04-20T07:35:23.153Z,6.35
2019-04-20T07:36:42.718Z,6.45
2019-04-20T07:38:23.449Z,6.20
2019-04-20T07:39:48.342Z,6.70
2019-04-20T07:41:29.821Z,6.57
2019-04-20T07:42:57.650Z,6.50
2019-04-20T07:44:36.332Z,6.50
2019-04-20T07:46:10.542Z,6.50
2019-04-20T07:47:44.112Z,6.27
2019-04-20T07:49:12.733Z,5.80
2019-04-20T07:50:37.556Z,5.80
2019-04-20T07:51:59.596Z,6.10
2019-04-20T07:53:45.284Z,6.20
2019-04-20T07:57:02.107Z,6.13
2019-04-20T07:58:25.215Z,6.50
2019-04-20T08:00:08.099Z,5.80
2019-04-20T08:02:00.709Z,6.23
2019-04-20T08:03:38.071Z,5.83
2019-04-20T08:05:19.661Z,6.33
2019-04-20T08:06:46.981Z,5.70
2019-04-20T08:08:28.164Z,6.00
2019-04-20T08:09:54.697Z,6.07
2019-04-20T08:11:41.152Z,6.00
2019-04-20T08:15:01.441Z,5.57
2019-04-20T08:16:31.097Z,5.57
2019-04-20T08:18:13.692Z,5.63
2019-04-20T08:19:30.090Z,5.80
2019-04-20T08:21:12.942Z,5.73
2019-04-20T08:22:42.220Z,6.23
2019-04-20T08:24:13.278Z,6.10
2019-04-20T08:25:41.878Z,5.80
2019-04-20T08:27:09.956Z,6.17
2019-04-20T08:28:56.311Z,5.90
2019-04-20T08:30:48.682Z,5.80
2019-04-20T08:32:45.545Z,5.87
2019-04-20T08:34:27.919Z,5.80
2019-04-20T08:36:01.276Z,5.90
2019-04-20T08:37:29.292Z,6.03
2019-04-20T08:40:37.309Z,6.00
2019-04-20T08:42:13.330Z,6.03
2019-04-20T08:45:23.621Z,5.90
2019-04-20T08:47:05.180Z,5.87
2019-04-20T08:48:28.837Z,5.70
2019-04-20T08:50:11.674Z,5.93
2019-04-20T08:51:53.745Z,5.77
2019-04-20T08:53:20.471Z,5.27
2019-04-20T08:54:54.180Z,5.70
2019-04-20T08:56:19.791Z,5.80
2019-04-20T08:57:39.987Z,5.57
2019-04-20T08:59:13.651Z,6.00
2019-04-20T09:00:53.656Z,5.83
2019-04-20T09:02:20.718Z,5.50
2019-04-20T09:04:04.935Z,5.83
2019-04-20T09:05:40.028Z,5.80
2019-04-20T09:07:09.120Z,5.40
2019-04-20T09:08:46.578Z,6.10
2019-04-20T09:10:35.695Z,5.60
2019-04-20T09:12:01.291Z,5.87
2019-04-20T09:13:27.057Z,5.43
2019-04-20T09:14:53.089Z,5.40
2019-04-20T09:16:32.360Z,5.90
2019-04-20T09:18:13.132Z,5.63
2019-04-20T09:19:47.945Z,5.50
2019-04-20T09:21:27.202Z,6.03
2019-04-20T09:23:12.930Z,5.73
2019-04-20T09:24:51.123Z,5.63
2019-04-20T09:26:21.992Z,5.40
2019-04-20T09:28:11.550Z,6.20
2019-04-20T09:29:45.205Z,6.10
2019-04-20T09:31:28.281Z,5.60
2019-04-20T09:33:09.267Z,6.00
2019-04-20T09:34:51.187Z,6.10
2019-04-20T09:36:15.482Z,6.60
2019-04-20T09:37:53.344Z,5.60
2019-04-20T09:39:31.693Z,5.57
2019-04-20T09:41:14.870Z,5.80
2019-04-20T09:42:40.904Z,5.43
2019-04-20T09:44:13.405Z,5.90
2019-04-20T09:45:52.494Z,5.57
2019-04-20T09:47:27.462Z,5.60
2019-04-20T09:48:59.901Z,6.13
2019-04-20T09:50:52.147Z,5.90
2019-04-20T09:52:17.250Z,6.00
2019-04-20T09:53:48.473Z,5.33
2019-04-20T09:55:24.616Z,5.63
2019-04-20T09:57:04.989Z,5.70
2019-04-20T09:58:30.925Z,5.60
2019-04-20T10:00:12.140Z,5.60
2019-04-20T10:01:35.139Z,5.67
2019-04-20T10:03:02.381Z,6.00
2019-04-20T10:04:35.536Z,5.63
2019-04-20T10:06:07.820Z,5.43
2019-04-20T10:07:40.942Z,5.80
2019-04-20T10:09:13.926Z,5.67
2019-04-20T10:10:48.711Z,5.33
2019-04-20T10:12:21.711Z,5.50
2019-04-20T10:13:54.428Z,5.77
2019-04-20T10:15:29.560Z,5.87
2019-04-20T10:17:02.133Z,5.43
2019-04-20T10:18:42.496Z,5.50
2019-04-20T10:20:15.026Z,5.47
2019-04-20T10:21:43.640Z,5.83
2019-04-20T10:23:16.487Z,5.47
2019-04-20T10:24:50.457Z,5.40
2019-04-20T10:26:23.041Z,5.50
2019-04-20T10:27:55.761Z,5.50
2019-04-20T10:29:28.142Z,5.37
2019-04-20T10:31:00.355Z,5.20
2019-04-20T10:32:39.178Z,5.77
2019-04-20T10:34:07.622Z,5.30
2019-04-20T10:35:39.712Z,5.70
2019-04-20T10:37:31.646Z,5.70
2019-04-20T10:39:07.045Z,5.73
2019-04-20T10:40:51.209Z,5.50
2019-04-20T10:42:14.217Z,5.83
2019-04-20T10:43:46.981Z,5.80
2019-04-20T10:45:19.309Z,5.73
2019-04-20T10:46:51.484Z,5.80
2019-04-20T10:48:23.642Z,6.10
2019-04-20T10:49:56.585Z,5.50
2019-04-20T10:51:29.492Z,5.70
2019-04-20T10:53:01.847Z,5.83
2019-04-20T10:54:34.400Z,5.40
2019-04-20T10:56:07.427Z,5.50
2019-04-20T10:57:39.777Z,5.73
2019-04-20T10:59:11.984Z,5.70
2019-04-20T11:00:46.053Z,5.67
2019-04-20T11:02:19.503Z,5.10
2019-04-20T11:03:52.312Z,5.73
2019-04-20T11:05:24.548Z,5.70
2019-04-20T11:06:56.796Z,5.90
2019-04-20T11:08:29.098Z,5.40
2019-04-20T11:10:12.958Z,5.60
2019-04-20T11:11:37.010Z,5.37
2019-04-20T11:13:09.667Z,5.33
2019-04-20T11:14:44.304Z,5.03
2019-04-20T11:16:15.822Z,5.70
2019-04-20T11:17:49.139Z,5.63
2019-04-20T11:19:21.518Z,5.57
2019-04-20T11:20:53.758Z,5.20
2019-04-20T11:22:26.278Z,5.90
2019-04-20T11:23:58.840Z,5.70
2019-04-20T11:25:32.379Z,5.60
2019-04-20T11:27:04.700Z,5.43
2019-04-20T11:28:37.805Z,5.50
2019-04-20T11:30:10.443Z,5.20
2019-04-20T11:31:48.800Z,5.30
2019-04-20T11:33:18.135Z,5.40
2019-04-20T11:34:51.248Z,5.00
2019-04-20T11:36:23.660Z,5.33
2019-04-20T11:37:57.372Z,5.57
2019-04-20T11:39:29.868Z,5.40
2019-04-20T11:41:11.192Z,5.43
2019-04-20T11:42:37.354Z,5.33
2019-04-20T11:44:09.785Z,5.60
2019-04-20T11:45:42.690Z,5.60
2019-04-20T11:47:15.219Z,5.40
2019-04-20T11:48:47.646Z,5.87
2019-04-20T11:50:21.935Z,5.67
2019-04-20T11:51:55.296Z,5.70
2019-04-20T11:53:28.609Z,5.70
2019-04-20T11:55:02.427Z,5.00
2019-04-20T11:56:38.875Z,5.13
2019-04-20T11:58:09.999Z,5.43
2019-04-20T11:59:43.176Z,5.30
2019-04-20T12:01:51.967Z,5.80
2019-04-20T12:03:29.807Z,5.60
2019-04-20T12:05:13.101Z,5.50
2019-04-20T12:06:34.823Z,5.67
2019-04-20T12:08:07.487Z,6.10
2019-04-20T12:09:39.784Z,5.60
2019-04-20T12:11:22.986Z,13.47
2019-04-20T12:12:50.220Z,9.27
2019-04-20T12:14:20.776Z,6.53
2019-04-20T12:15:53.895Z,5.80
2019-04-20T12:17:26.276Z,5.80
2019-04-20T12:18:58.519Z,5.60
2019-04-20T12:20:30.591Z,5.47
2019-04-20T12:22:03.593Z,5.70
2019-04-20T12:23:36.202Z,5.87
2019-04-20T12:25:09.971Z,5.00
2019-04-20T12:26:42.727Z,5.57
2019-04-20T12:28:15.740Z,4.90
2019-04-20T12:29:48.176Z,5.17
2019-04-20T12:31:23.791Z,5.60
2019-04-20T12:32:57.550Z,5.37
2019-04-20T12:34:28.728Z,4.83
2019-04-20T12:36:02.550Z,4.93
2019-04-20T12:37:34.821Z,5.03
2019-04-20T12:39:08.921Z,5.33
2019-04-20T12:40:42.028Z,5.20
2019-04-20T12:42:14.809Z,5.23
2019-04-20T12:43:47.640Z,7.70
2019-04-20T12:45:21.822Z,5.43
2019-04-20T12:46:54.237Z,5.40
2019-04-20T12:48:26.287Z,5.50
2019-04-20T12:49:59.395Z,5.40
2019-04-20T12:51:36.654Z,6.37
2019-04-20T12:53:06.530Z,5.80
2019-04-20T12:54:41.703Z,5.40
2019-04-20T12:56:12.940Z,5.37
2019-04-20T12:57:45.264Z,5.40
2019-04-20T12:59:17.913Z,5.30
2019-04-20T13:00:52.293Z,5.80
2019-04-20T13:02:25.124Z,5.87
2019-04-20T13:03:57.515Z,6.50
2019-04-20T13:05:29.759Z,5.60
2019-04-20T13:07:02.157Z,5.90
2019-04-20T13:08:39.145Z,6.60
2019-04-20T13:10:09.843Z,6.23
2019-04-20T13:12:04.460Z,6.97
2019-04-20T13:13:40.852Z,6.17
2019-04-20T13:15:42.470Z,5.80
2019-04-20T13:17:14.866Z,6.00
2019-04-20T13:18:53.055Z,6.43
2019-04-20T13:20:25.853Z,6.43
2019-04-20T13:21:58.953Z,6.20
2019-04-20T13:23:31.408Z,5.97
2019-04-20T13:25:05.210Z,6.30
2019-04-20T13:26:37.472Z,6.27
2019-04-20T13:28:10.702Z,6.07
2019-04-20T13:29:46.197Z,6.50
2019-04-20T13:31:17.813Z,6.63
2019-04-20T13:32:50.001Z,6.43
2019-04-20T13:34:22.305Z,6.03
2019-04-20T13:35:54.664Z,6.57
2019-04-20T13:37:26.764Z,6.60
2019-04-20T13:38:59.680Z,6.53
2019-04-20T13:40:33.353Z,6.33
2019-04-20T13:42:12.250Z,6.30
2019-04-20T13:43:39.819Z,6.50
2019-04-20T13:45:12.930Z,6.13
2019-04-20T13:46:45.322Z,6.37
2019-04-20T13:48:17.388Z,6.03
2019-04-20T13:49:49.516Z,6.07
2019-04-20T13:51:22.770Z,5.40
2019-04-20T13:52:56.513Z,6.10
2019-04-20T13:54:29.879Z,6.07
2019-04-20T13:56:02.539Z,5.77
2019-04-20T13:57:51.675Z,6.33
2019-04-20T13:59:41.935Z,6.10
2019-04-20T14:01:22.950Z,5.73
2019-04-20T14:03:02.578Z,5.93
2019-04-20T14:04:39.010Z,5.60
2019-04-20T14:06:11.316Z,5.13
2019-04-20T14:07:45.224Z,5.10
2019-04-20T14:09:17.548Z,5.33
2019-04-20T14:10:49.794Z,5.30
2019-04-20T14:12:29.709Z,4.90
2019-04-20T14:14:00.335Z,5.47
2019-04-20T14:15:31.127Z,5.20
2019-04-20T14:17:03.486Z,5.30
2019-04-20T14:18:35.712Z,5.03
2019-04-20T14:20:13.280Z,4.90
2019-04-20T14:21:42.266Z,4.83
2019-04-20T14:23:14.939Z,5.03
2019-04-20T14:24:47.352Z,5.40
2019-04-20T14:26:19.433Z,5.63
2019-04-20T14:27:52.662Z,5.20
2019-04-20T14:29:25.235Z,5.40
2019-04-20T14:30:58.199Z,5.20
2019-04-20T14:32:30.533Z,5.00
2019-04-20T14:34:02.780Z,5.00
2019-04-20T14:35:34.994Z,5.43
2019-04-20T14:37:07.078Z,5.50
2019-04-20T14:38:40.248Z,5.30
2019-04-20T14:40:12.887Z,5.23
2019-04-20T14:41:46.420Z,5.40
2019-04-20T14:43:19.336Z,5.10
2019-04-20T14:44:52.115Z,5.10
2019-04-20T14:46:26.289Z,5.30
2019-04-20T14:47:59.540Z,4.87
2019-04-20T14:49:32.645Z,5.10
2019-04-20T14:51:05.695Z,4.83
2019-04-20T14:52:37.972Z,5.10
2019-04-20T14:54:10.089Z,4.50
2019-04-20T14:55:42.199Z,5.00
2019-04-20T14:57:14.457Z,5.27
2019-04-20T14:59:07.531Z,5.07
2019-04-20T15:00:56.604Z,4.80
2019-04-20T15:02:30.267Z,4.87
2019-04-20T15:04:06.758Z,4.60
2019-04-20T15:05:37.123Z,5.30
2019-04-20T15:07:10.751Z,5.00
2019-04-20T15:08:43.010Z,5.60
2019-04-20T15:10:16.211Z,5.07
2019-04-20T15:11:48.583Z,4.90
2019-04-20T15:13:20.737Z,4.27
2019-04-20T15:14:52.844Z,5.00
2019-04-20T15:16:25.058Z,4.40
2019-04-20T15:18:06.890Z,5.10
2019-04-20T15:19:57.279Z,4.67
2019-04-20T15:21:29.870Z,4.33
2019-04-20T15:23:07.750Z,4.63
2019-04-20T15:24:39.986Z,4.93
2019-04-20T15:26:12.796Z,4.80
2019-04-20T15:27:46.314Z,4.70
2019-04-20T15:29:20.040Z,5.07
2019-04-20T15:30:52.452Z,4.70
2019-04-20T15:32:25.031Z,4.23
2019-04-20T15:33:57.525Z,4.30
2019-04-20T15:35:30.216Z,4.40
2019-04-20T15:37:02.606Z,4.70
2019-04-20T15:38:35.462Z,4.43
2019-04-20T15:40:08.968Z,4.73
2019-04-20T15:41:41.182Z,4.30
2019-04-20T15:43:17.422Z,4.73
2019-04-20T15:44:47.444Z,4.60
2019-04-20T15:46:19.546Z,4.60
2019-04-20T15:47:52.180Z,4.70
2019-04-20T15:49:24.429Z,4.63
2019-04-20T15:50:58.081Z,4.43
2019-04-20T15:52:36.697Z,4.57
2019-04-20T15:54:05.277Z,4.97
2019-04-20T15:55:40.226Z,4.77
2019-04-20T15:57:16.618Z,4.67
2019-04-20T15:58:46.157Z,4.57
2019-04-20T16:00:18.762Z,4.70
2019-04-20T16:01:55.595Z,4.60
2019-04-20T16:03:33.035Z,4.27
2019-04-20T16:05:24.179Z,4.30
2019-04-20T16:06:56.979Z,4.67
2019-04-20T16:08:32.444Z,4.77
2019-04-20T16:10:05.367Z,4.20
2019-04-20T16:11:39.129Z,4.80
2019-04-20T16:13:20.215Z,4.43
2019-04-20T16:14:45.834Z,4.37
2019-04-20T16:16:19.493Z,4.67
2019-04-20T16:17:53.243Z,4.63
2019-04-20T16:19:39.498Z,4.50
2019-04-20T16:21:06.227Z,4.23
2019-04-20T16:22:34.454Z,4.70
2019-04-20T16:24:10.908Z,4.80
2019-04-20T16:25:47.808Z,4.60
2019-04-20T16:27:37.900Z,4.20
2019-04-20T16:29:11.548Z,4.50
2019-04-20T16:30:45.393Z,4.30
2019-04-20T16:32:18.476Z,4.27
2019-04-20T16:33:53.626Z,4.50
2019-04-20T16:35:25.009Z,4.70
2019-04-20T16:36:58.643Z,4.20
2019-04-20T16:38:31.094Z,4.20
2019-04-20T16:40:06.067Z,3.90
2019-04-20T16:41:38.512Z,4.00
2019-04-20T16:43:21.078Z,4.90
2019-04-20T16:44:45.260Z,5.10
2019-04-20T16:46:20.260Z,4.40
2019-04-20T16:47:52.415Z,4.40
2019-04-20T16:49:25.485Z,4.70
2019-04-20T16:50:58.585Z,4.40
2019-04-20T16:52:30.936Z,4.40
2019-04-20T16:54:03.754Z,4.50
2019-04-20T16:55:36.949Z,4.53
2019-04-20T16:57:11.394Z,4.53
2019-04-20T16:58:44.099Z,4.80
2019-04-20T17:00:17.949Z,4.50
2019-04-20T17:01:50.656Z,4.30
2019-04-20T17:03:31.722Z,4.60
2019-04-20T17:04:57.004Z,4.73
2019-04-20T17:06:29.833Z,4.40
2019-04-20T17:08:02.745Z,4.67
2019-04-20T17:09:35.640Z,4.63
2019-04-20T17:11:08.077Z,4.70
2019-04-20T17:12:41.792Z,4.73
2019-04-20T17:14:14.814Z,5.00
2019-04-20T17:15:47.873Z,4.90
2019-04-20T17:17:20.350Z,4.87
2019-04-20T17:18:52.672Z,4.40
2019-04-20T17:20:26.919Z,4.63
2019-04-20T17:21:59.268Z,4.53
2019-04-20T17:23:31.504Z,4.53
2019-04-20T17:25:04.064Z,5.07
2019-04-20T17:26:45.133Z,5.20
2019-04-20T17:28:46.939Z,5.17
2019-04-20T17:30:50.798Z,4.90
2019-04-20T17:32:23.693Z,5.07
2019-04-20T17:34:21.238Z,4.63
2019-04-20T17:35:47.300Z,5.23
2019-04-20T17:37:10.914Z,5.97
2019-04-20T17:38:48.488Z,5.03
2019-04-20T17:40:35.472Z,5.20
2019-04-20T17:42:07.419Z,4.53
2019-04-20T17:43:33.151Z,4.80
2019-04-20T17:45:06.739Z,4.60
2019-04-20T17:46:44.906Z,4.83
2019-04-20T17:48:18.904Z,4.40
2019-04-20T17:49:59.689Z,4.80
2019-04-20T17:51:39.637Z,4.57
2019-04-20T17:53:05.212Z,4.50
2019-04-20T17:54:40.713Z,4.50
2019-04-20T17:56:12.832Z,4.60
2019-04-20T17:57:44.911Z,4.17
2019-04-20T17:59:17.024Z,4.50
2019-04-20T18:00:59.910Z,4.97
2019-04-20T18:02:58.924Z,4.50
2019-04-20T18:04:49.470Z,4.20
2019-04-20T18:06:14.574Z,4.60
2019-04-20T18:07:46.625Z,4.57
2019-04-20T18:09:11.727Z,4.60
2019-04-20T18:10:45.633Z,4.40
2019-04-20T18:12:20.829Z,4.57
2019-04-20T18:13:44.996Z,4.57
2019-04-20T18:15:36.852Z,4.70
2019-04-20T18:17:14.078Z,4.07
2019-04-20T18:19:09.988Z,4.60
2019-04-20T18:20:59.133Z,4.60
2019-04-20T18:22:31.837Z,4.60
2019-04-20T18:24:13.673Z,4.77
2019-04-20T18:26:06.152Z,4.70
2019-04-20T18:27:31.967Z,4.60
2019-04-20T18:29:19.951Z,4.67
2019-04-20T18:30:48.001Z,4.70
2019-04-20T18:32:33.484Z,4.97
2019-04-20T18:34:14.123Z,4.30
2019-04-20T18:35:47.224Z,4.60
2019-04-20T18:37:21.405Z,4.80
2019-04-20T18:38:58.522Z,5.10
2019-04-20T18:40:36.152Z,4.50
2019-04-20T18:42:11.052Z,4.87
2019-04-20T18:43:43.908Z,5.03
2019-04-20T18:45:26.866Z,4.63
2019-04-20T18:47:07.015Z,4.77
2019-04-20T18:48:45.249Z,4.80
2019-04-20T18:50:04.501Z,4.63
2019-04-20T18:51:27.940Z,5.53
2019-04-20T18:53:00.629Z,5.37
2019-04-20T18:54:39.577Z,7.27
2019-04-20T18:56:08.126Z,6.80
2019-04-20T18:57:44.432Z,6.30
2019-04-20T18:59:16.876Z,5.27
2019-04-20T19:00:51.792Z,6.13
2019-04-20T19:02:29.328Z,6.07
2019-04-20T19:03:57.955Z,5.50
2019-04-20T19:05:31.542Z,6.07
2019-04-20T19:07:05.613Z,8.67
2019-04-20T19:08:44.251Z,7.47
2019-04-20T19:10:22.972Z,20.20
2019-04-20T19:11:55.889Z,11.87
2019-04-20T19:13:36.341Z,18.97
2019-04-20T19:15:51.131Z,27.83
2019-04-20T19:17:34.481Z,17.23
2019-04-20T19:19:15.091Z,26.03
2019-04-20T19:20:39.097Z,28.67
2019-04-20T19:22:12.136Z,23.93
2019-04-20T19:23:53.520Z,32.70
2019-04-20T19:25:26.098Z,27.80
2019-04-20T19:26:58.326Z,21.53
2019-04-20T19:28:31.832Z,22.60
2019-04-20T19:30:17.850Z,30.50
2019-04-20T19:31:50.988Z,32.10
2019-04-20T19:33:30.224Z,24.80
2019-04-20T19:34:54.963Z,20.17
2019-04-20T19:36:27.608Z,19.50
2019-04-20T19:38:04.285Z,14.37
2019-04-20T19:39:39.850Z,16.10
2019-04-20T19:41:16.217Z,19.70
2019-04-20T19:42:45.190Z,19.73
2019-04-20T19:44:18.916Z,11.30
2019-04-20T19:46:16.637Z,6.80
2019-04-20T19:47:38.381Z,5.97
2019-04-20T19:49:01.117Z,6.03
2019-04-20T19:50:53.102Z,5.60
2019-04-20T19:52:27.221Z,5.10
2019-04-20T19:53:52.845Z,5.33
2019-04-20T19:55:25.667Z,5.50
2019-04-20T19:56:56.327Z,5.87
2019-04-20T19:58:28.194Z,5.63
2019-04-20T19:59:52.780Z,5.23
2019-04-20T20:01:23.986Z,5.70
2019-04-20T20:02:57.397Z,5.77
2019-04-20T20:04:32.138Z,5.73
2019-04-20T20:06:04.025Z,5.60
2019-04-20T20:07:41.564Z,5.07
2019-04-20T20:09:12.853Z,5.73
2019-04-20T20:10:45.785Z,5.70
2019-04-20T20:12:21.086Z,5.67
2019-04-20T20:13:55.348Z,6.13
2019-04-20T20:15:32.484Z,5.90
2019-04-20T20:17:25.149Z,6.10
2019-04-20T20:18:49.115Z,6.30
2019-04-20T20:20:30.786Z,5.87
2019-04-20T20:21:59.082Z,6.17
2019-04-20T20:23:16.530Z,6.27
2019-04-20T20:24:49.413Z,6.40
2019-04-20T20:26:29.164Z,6.30
2019-04-20T20:28:08.090Z,6.20
2019-04-20T20:29:39.711Z,6.67
2019-04-20T20:31:17.008Z,6.20
2019-04-20T20:32:57.608Z,6.50
2019-04-20T20:34:22.432Z,7.10
2019-04-20T20:35:53.646Z,6.23
2019-04-20T20:37:29.588Z,6.70
2019-04-20T20:39:03.366Z,6.33
2019-04-20T20:40:32.866Z,6.70
2019-04-20T20:42:15.245Z,5.97
2019-04-20T20:43:51.196Z,7.13
2019-04-20T20:45:24.048Z,6.70
2019-04-20T20:46:55.319Z,6.43
2019-04-20T20:48:35.400Z,6.70
2019-04-20T20:51:48.577Z,6.30
2019-04-20T20:53:12.458Z,6.70
2019-04-20T20:54:43.620Z,6.70
2019-04-20T20:56:18.514Z,7.07
2019-04-20T20:57:55.712Z,6.60
2019-04-20T20:59:30.370Z,6.97
2019-04-20T21:00:57.556Z,6.53
2019-04-20T21:02:41.384Z,6.40
2019-04-20T21:04:00.642Z,6.93
2019-04-20T21:05:33.543Z,6.30
2019-04-20T21:07:06.705Z,7.13
2019-04-20T21:08:45.652Z,7.93
2019-04-20T21:10:15.309Z,7.53
2019-04-20T21:11:51.111Z,6.77
2019-04-20T21:13:25.930Z,7.25
2019-04-20T21:15:00.385Z,7.27
2019-04-20T21:16:33.608Z,6.83
2019-04-20T21:18:31.090Z,7.30
2019-04-20T21:19:57.962Z,7.10
2019-04-20T21:21:27.477Z,7.13
2019-04-20T21:23:03.888Z,7.37
2019-04-20T21:24:25.403Z,7.07
2019-04-20T21:26:12.854Z,7.07
2019-04-20T21:27:42.534Z,6.67
2019-04-20T21:29:19.198Z,7.43
2019-04-20T21:30:50.607Z,7.00
2019-04-20T21:32:23.704Z,7.22
2019-04-20T21:33:57.286Z,6.83